Northford, Connecticut
Current Conditions -  °F | °C
As of 9:53 PM on Thursday 27 Nov 2014 (Local Time) from KMMK Reporting Station
Overcast Overcast  
Wind Chill: 27°   Ceiling: 4700
Heat Index: 33°   Visibility: 10mi
Dew Point: 27°   Wind: 7mph
Humidity: 78%   Direction: 320°NW
Pressure: 30.03"   Gusts: NA
Location:  41.39°N, 72.79°W
Report Text: KMMK 280253Z AUTO 32006KT 10SM OVC047 01/M03 A3003 RMK AO2 SLP170 60000 T00061028 50005 TSNO
Loading
Personal Weather Stations






























Interactive Weather Map New forecast layout! Learn more

10-Day Weather Forecast

Advertisements
Track Severe Weather on mobile